sensor_id;sensor_type;location;lat;lon;timestamp;P1;durP1;ratioP1;P2;durP2;ratioP2
74935;SDS011;63501;55.570;37.488;2022-10-16T00:03:37;3.88;;;2.00;;
74935;SDS011;63501;55.570;37.488;2022-10-16T00:06:04;4.03;;;2.30;;
74935;SDS011;63501;55.570;37.488;2022-10-16T00:08:31;5.38;;;2.20;;
74935;SDS011;63501;55.570;37.488;2022-10-16T00:11:04;3.38;;;2.30;;
74935;SDS011;63501;55.570;37.488;2022-10-16T00:13:38;3.55;;;1.90;;
74935;SDS011;63501;55.570;37.488;2022-10-16T00:16:05;4.95;;;2.60;;
74935;SDS011;63501;55.570;37.488;2022-10-16T00:18:32;2.88;;;2.05;;
74935;SDS011;63501;55.570;37.488;2022-10-16T00:21:04;3.70;;;1.92;;
74935;SDS011;63501;55.570;37.488;2022-10-16T00:23:42;4.75;;;2.33;;
74935;SDS011;63501;55.570;37.488;2022-10-16T00:26:09;4.38;;;2.47;;
74935;SDS011;63501;55.570;37.488;2022-10-16T00:28:37;5.95;;;2.50;;
74935;SDS011;63501;55.570;37.488;2022-10-16T00:31:04;4.38;;;2.20;;
74935;SDS011;63501;55.570;37.488;2022-10-16T00:33:31;3.38;;;2.17;;
74935;SDS011;63501;55.570;37.488;2022-10-16T00:35:58;5.75;;;2.10;;
74935;SDS011;63501;55.570;37.488;2022-10-16T00:38:24;3.03;;;2.10;;
74935;SDS011;63501;55.570;37.488;2022-10-16T00:40:49;4.82;;;2.40;;
74935;SDS011;63501;55.570;37.488;2022-10-16T00:46:21;3.08;;;1.75;;
74935;SDS011;63501;55.570;37.488;2022-10-16T00:51:42;4.15;;;1.90;;
74935;SDS011;63501;55.570;37.488;2022-10-16T00:54:13;2.88;;;1.40;;
74935;SDS011;63501;55.570;37.488;2022-10-16T00:56:43;2.53;;;1.15;;
74935;SDS011;63501;55.570;37.488;2022-10-16T00:59:16;4.07;;;2.08;;
74935;SDS011;63501;55.570;37.488;2022-10-16T01:01:47;4.75;;;2.38;;
74935;SDS011;63501;55.570;37.488;2022-10-16T01:04:13;3.35;;;2.20;;
74935;SDS011;63501;55.570;37.488;2022-10-16T01:09:47;5.50;;;2.40;;
74935;SDS011;63501;55.570;37.488;2022-10-16T01:20:58;3.75;;;2.13;;
74935;SDS011;63501;55.570;37.488;2022-10-16T01:32:18;2.95;;;2.17;;
74935;SDS011;63501;55.570;37.488;2022-10-16T01:34:47;4.15;;;2.15;;
74935;SDS011;63501;55.570;37.488;2022-10-16T01:37:18;3.45;;;2.42;;
74935;SDS011;63501;55.570;37.488;2022-10-16T01:39:52;2.58;;;1.92;;
74935;SDS011;63501;55.570;37.488;2022-10-16T01:42:22;5.57;;;2.20;;
74935;SDS011;63501;55.570;37.488;2022-10-16T01:44:52;4.78;;;2.00;;
74935;SDS011;63501;55.570;37.488;2022-10-16T01:47:21;3.38;;;2.08;;
74935;SDS011;63501;55.570;37.488;2022-10-16T01:49:49;5.57;;;2.60;;
74935;SDS011;63501;55.570;37.488;2022-10-16T01:52:17;3.60;;;1.92;;
74935;SDS011;63501;55.570;37.488;2022-10-16T01:54:47;4.55;;;2.10;;
74935;SDS011;63501;55.570;37.488;2022-10-16T01:57:16;3.45;;;2.03;;
74935;SDS011;63501;55.570;37.488;2022-10-16T01:59:45;5.93;;;2.20;;
74935;SDS011;63501;55.570;37.488;2022-10-16T02:02:15;3.70;;;1.80;;
74935;SDS011;63501;55.570;37.488;2022-10-16T02:04:48;6.32;;;2.38;;
74935;SDS011;63501;55.570;37.488;2022-10-16T02:07:18;4.45;;;2.20;;
74935;SDS011;63501;55.570;37.488;2022-10-16T02:09:44;4.93;;;2.42;;
74935;SDS011;63501;55.570;37.488;2022-10-16T02:12:21;3.92;;;2.58;;
74935;SDS011;63501;55.570;37.488;2022-10-16T02:14:52;5.03;;;2.55;;
74935;SDS011;63501;55.570;37.488;2022-10-16T02:17:18;3.55;;;1.90;;
74935;SDS011;63501;55.570;37.488;2022-10-16T02:19:45;4.18;;;2.15;;
74935;SDS011;63501;55.570;37.488;2022-10-16T02:22:15;2.95;;;2.15;;
74935;SDS011;63501;55.570;37.488;2022-10-16T02:30:33;3.67;;;1.98;;
74935;SDS011;63501;55.570;37.488;2022-10-16T02:32:59;3.30;;;2.00;;
74935;SDS011;63501;55.570;37.488;2022-10-16T02:35:28;3.33;;;1.73;;
74935;SDS011;63501;55.570;37.488;2022-10-16T02:37:56;5.30;;;2.22;;
74935;SDS011;63501;55.570;37.488;2022-10-16T02:40:22;2.42;;;1.60;;
74935;SDS011;63501;55.570;37.488;2022-10-16T02:42:52;2.55;;;1.77;;
74935;SDS011;63501;55.570;37.488;2022-10-16T02:45:19;4.80;;;2.20;;
74935;SDS011;63501;55.570;37.488;2022-10-16T02:47:45;2.15;;;1.33;;
74935;SDS011;63501;55.570;37.488;2022-10-16T02:50:11;3.72;;;2.20;;
74935;SDS011;63501;55.570;37.488;2022-10-16T02:52:37;2.60;;;1.80;;
74935;SDS011;63501;55.570;37.488;2022-10-16T02:55:02;3.47;;;1.98;;
74935;SDS011;63501;55.570;37.488;2022-10-16T02:57:28;2.60;;;2.08;;
74935;SDS011;63501;55.570;37.488;2022-10-16T02:59:54;3.78;;;2.22;;
74935;SDS011;63501;55.570;37.488;2022-10-16T03:02:19;2.90;;;1.77;;
74935;SDS011;63501;55.570;37.488;2022-10-16T03:04:45;5.40;;;2.42;;
74935;SDS011;63501;55.570;37.488;2022-10-16T03:07:10;4.45;;;2.47;;
74935;SDS011;63501;55.570;37.488;2022-10-16T03:09:36;3.70;;;1.90;;
74935;SDS011;63501;55.570;37.488;2022-10-16T03:12:01;3.88;;;2.10;;
74935;SDS011;63501;55.570;37.488;2022-10-16T03:14:27;4.28;;;2.53;;
74935;SDS011;63501;55.570;37.488;2022-10-16T03:16:53;4.63;;;2.30;;
74935;SDS011;63501;55.570;37.488;2022-10-16T03:19:18;5.10;;;2.30;;
74935;SDS011;63501;55.570;37.488;2022-10-16T03:21:44;3.78;;;1.95;;
74935;SDS011;63501;55.570;37.488;2022-10-16T03:24:10;4.30;;;2.20;;
74935;SDS011;63501;55.570;37.488;2022-10-16T03:26:35;6.40;;;3.55;;
74935;SDS011;63501;55.570;37.488;2022-10-16T03:29:02;6.78;;;3.08;;
74935;SDS011;63501;55.570;37.488;2022-10-16T03:31:28;6.97;;;3.55;;
74935;SDS011;63501;55.570;37.488;2022-10-16T03:33:54;9.82;;;4.20;;
74935;SDS011;63501;55.570;37.488;2022-10-16T03:36:19;6.68;;;4.30;;
74935;SDS011;63501;55.570;37.488;2022-10-16T03:38:45;9.98;;;4.50;;
74935;SDS011;63501;55.570;37.488;2022-10-16T03:41:10;9.27;;;4.78;;
74935;SDS011;63501;55.570;37.488;2022-10-16T03:43:36;10.02;;;4.78;;
74935;SDS011;63501;55.570;37.488;2022-10-16T03:46:01;7.45;;;4.57;;
74935;SDS011;63501;55.570;37.488;2022-10-16T03:48:27;7.13;;;4.30;;
74935;SDS011;63501;55.570;37.488;2022-10-16T03:50:52;9.23;;;4.45;;
74935;SDS011;63501;55.570;37.488;2022-10-16T03:53:18;7.28;;;4.10;;
74935;SDS011;63501;55.570;37.488;2022-10-16T03:55:43;9.55;;;5.18;;
74935;SDS011;63501;55.570;37.488;2022-10-16T03:58:10;9.02;;;4.53;;
74935;SDS011;63501;55.570;37.488;2022-10-16T04:00:39;4.88;;;3.60;;
74935;SDS011;63501;55.570;37.488;2022-10-16T04:03:06;7.45;;;4.40;;
74935;SDS011;63501;55.570;37.488;2022-10-16T04:05:31;8.68;;;4.32;;
74935;SDS011;63501;55.570;37.488;2022-10-16T04:07:56;8.18;;;4.03;;
74935;SDS011;63501;55.570;37.488;2022-10-16T04:10:22;7.07;;;3.70;;
74935;SDS011;63501;55.570;37.488;2022-10-16T04:12:47;5.93;;;3.53;;
74935;SDS011;63501;55.570;37.488;2022-10-16T04:15:13;6.07;;;3.72;;
74935;SDS011;63501;55.570;37.488;2022-10-16T04:17:38;5.88;;;3.22;;
74935;SDS011;63501;55.570;37.488;2022-10-16T04:20:04;6.75;;;3.47;;
74935;SDS011;63501;55.570;37.488;2022-10-16T04:22:30;5.25;;;3.30;;
74935;SDS011;63501;55.570;37.488;2022-10-16T04:24:56;5.70;;;3.60;;
74935;SDS011;63501;55.570;37.488;2022-10-16T04:27:21;7.82;;;3.80;;
74935;SDS011;63501;55.570;37.488;2022-10-16T04:29:46;4.75;;;3.20;;
74935;SDS011;63501;55.570;37.488;2022-10-16T04:32:12;6.60;;;3.05;;
74935;SDS011;63501;55.570;37.488;2022-10-16T04:34:38;4.88;;;3.22;;
74935;SDS011;63501;55.570;37.488;2022-10-16T04:37:05;6.55;;;3.63;;
74935;SDS011;63501;55.570;37.488;2022-10-16T04:39:31;7.00;;;3.25;;
74935;SDS011;63501;55.570;37.488;2022-10-16T04:41:56;9.25;;;3.47;;
74935;SDS011;63501;55.570;37.488;2022-10-16T04:44:22;4.43;;;2.65;;
74935;SDS011;63501;55.570;37.488;2022-10-16T04:46:49;7.03;;;2.80;;
74935;SDS011;63501;55.570;37.488;2022-10-16T04:49:15;5.20;;;3.10;;
74935;SDS011;63501;55.570;37.488;2022-10-16T04:51:41;5.50;;;2.78;;
74935;SDS011;63501;55.570;37.488;2022-10-16T04:54:06;6.63;;;2.85;;
74935;SDS011;63501;55.570;37.488;2022-10-16T04:56:32;4.68;;;3.00;;
74935;SDS011;63501;55.570;37.488;2022-10-16T04:58:57;10.20;;;2.78;;
74935;SDS011;63501;55.570;37.488;2022-10-16T05:01:23;6.18;;;2.97;;
74935;SDS011;63501;55.570;37.488;2022-10-16T05:03:48;5.43;;;2.97;;
74935;SDS011;63501;55.570;37.488;2022-10-16T05:06:14;4.63;;;2.80;;
74935;SDS011;63501;55.570;37.488;2022-10-16T05:08:39;6.68;;;3.15;;
74935;SDS011;63501;55.570;37.488;2022-10-16T05:11:05;4.90;;;2.60;;
74935;SDS011;63501;55.570;37.488;2022-10-16T05:13:30;4.38;;;2.78;;
74935;SDS011;63501;55.570;37.488;2022-10-16T05:15:56;5.13;;;2.80;;
74935;SDS011;63501;55.570;37.488;2022-10-16T05:18:22;4.90;;;2.47;;
74935;SDS011;63501;55.570;37.488;2022-10-16T05:20:47;5.00;;;2.40;;
74935;SDS011;63501;55.570;37.488;2022-10-16T05:23:13;10.10;;;3.25;;
74935;SDS011;63501;55.570;37.488;2022-10-16T05:25:38;6.75;;;3.40;;
74935;SDS011;63501;55.570;37.488;2022-10-16T05:28:04;6.30;;;3.05;;
74935;SDS011;63501;55.570;37.488;2022-10-16T05:30:29;5.38;;;2.50;;
74935;SDS011;63501;55.570;37.488;2022-10-16T05:32:55;5.03;;;2.22;;
74935;SDS011;63501;55.570;37.488;2022-10-16T05:35:21;5.50;;;2.50;;
74935;SDS011;63501;55.570;37.488;2022-10-16T05:37:46;6.00;;;2.72;;
74935;SDS011;63501;55.570;37.488;2022-10-16T05:40:13;8.05;;;3.30;;
74935;SDS011;63501;55.570;37.488;2022-10-16T05:42:39;5.53;;;2.92;;
74935;SDS011;63501;55.570;37.488;2022-10-16T05:45:05;5.47;;;2.60;;
74935;SDS011;63501;55.570;37.488;2022-10-16T05:47:32;5.90;;;2.97;;
74935;SDS011;63501;55.570;37.488;2022-10-16T05:49:57;5.85;;;2.92;;
74935;SDS011;63501;55.570;37.488;2022-10-16T05:52:23;7.97;;;3.58;;
74935;SDS011;63501;55.570;37.488;2022-10-16T05:54:48;7.20;;;3.30;;
74935;SDS011;63501;55.570;37.488;2022-10-16T05:57:14;7.93;;;3.15;;
74935;SDS011;63501;55.570;37.488;2022-10-16T05:59:40;7.90;;;2.85;;
74935;SDS011;63501;55.570;37.488;2022-10-16T06:02:05;5.85;;;2.45;;
74935;SDS011;63501;55.570;37.488;2022-10-16T06:04:31;6.32;;;3.22;;
74935;SDS011;63501;55.570;37.488;2022-10-16T06:06:59;7.45;;;3.42;;
74935;SDS011;63501;55.570;37.488;2022-10-16T06:09:25;9.07;;;3.13;;
74935;SDS011;63501;55.570;37.488;2022-10-16T06:11:51;8.90;;;2.85;;
74935;SDS011;63501;55.570;37.488;2022-10-16T06:14:16;8.32;;;3.65;;
74935;SDS011;63501;55.570;37.488;2022-10-16T06:16:42;7.35;;;3.30;;
74935;SDS011;63501;55.570;37.488;2022-10-16T06:19:07;5.20;;;3.25;;
74935;SDS011;63501;55.570;37.488;2022-10-16T06:21:34;8.00;;;3.10;;
74935;SDS011;63501;55.570;37.488;2022-10-16T06:24:00;8.52;;;3.35;;
74935;SDS011;63501;55.570;37.488;2022-10-16T06:26:27;6.90;;;4.45;;
74935;SDS011;63501;55.570;37.488;2022-10-16T06:28:54;7.28;;;3.42;;
74935;SDS011;63501;55.570;37.488;2022-10-16T06:31:21;7.80;;;3.10;;
74935;SDS011;63501;55.570;37.488;2022-10-16T06:33:50;5.28;;;3.15;;
74935;SDS011;63501;55.570;37.488;2022-10-16T06:36:16;6.68;;;3.50;;
74935;SDS011;63501;55.570;37.488;2022-10-16T06:38:43;7.13;;;3.28;;
74935;SDS011;63501;55.570;37.488;2022-10-16T06:41:10;6.18;;;3.30;;
74935;SDS011;63501;55.570;37.488;2022-10-16T06:43:37;6.32;;;2.90;;
74935;SDS011;63501;55.570;37.488;2022-10-16T06:46:03;5.63;;;2.78;;
74935;SDS011;63501;55.570;37.488;2022-10-16T06:48:30;3.85;;;2.13;;
74935;SDS011;63501;55.570;37.488;2022-10-16T06:51:05;6.32;;;2.90;;
74935;SDS011;63501;55.570;37.488;2022-10-16T06:53:34;8.15;;;3.28;;
74935;SDS011;63501;55.570;37.488;2022-10-16T06:56:10;7.13;;;3.03;;
74935;SDS011;63501;55.570;37.488;2022-10-16T06:58:36;5.07;;;2.90;;
74935;SDS011;63501;55.570;37.488;2022-10-16T07:01:03;4.80;;;2.75;;
74935;SDS011;63501;55.570;37.488;2022-10-16T07:03:29;8.85;;;2.90;;
74935;SDS011;63501;55.570;37.488;2022-10-16T07:05:55;3.45;;;1.60;;
74935;SDS011;63501;55.570;37.488;2022-10-16T07:08:21;4.70;;;3.03;;
74935;SDS011;63501;55.570;37.488;2022-10-16T07:10:47;7.35;;;2.65;;
74935;SDS011;63501;55.570;37.488;2022-10-16T07:13:13;4.93;;;2.75;;
74935;SDS011;63501;55.570;37.488;2022-10-16T07:15:39;7.03;;;2.88;;
74935;SDS011;63501;55.570;37.488;2022-10-16T07:18:06;6.20;;;3.15;;
74935;SDS011;63501;55.570;37.488;2022-10-16T07:20:31;3.67;;;2.45;;
74935;SDS011;63501;55.570;37.488;2022-10-16T07:22:57;6.03;;;3.35;;
74935;SDS011;63501;55.570;37.488;2022-10-16T07:25:23;6.10;;;2.60;;
74935;SDS011;63501;55.570;37.488;2022-10-16T07:27:48;8.90;;;2.70;;
74935;SDS011;63501;55.570;37.488;2022-10-16T07:30:14;6.22;;;2.50;;
74935;SDS011;63501;55.570;37.488;2022-10-16T07:32:39;6.13;;;2.70;;
74935;SDS011;63501;55.570;37.488;2022-10-16T07:35:05;5.85;;;2.75;;
74935;SDS011;63501;55.570;37.488;2022-10-16T07:37:31;4.50;;;2.30;;
74935;SDS011;63501;55.570;37.488;2022-10-16T07:39:57;3.97;;;2.05;;
74935;SDS011;63501;55.570;37.488;2022-10-16T07:42:22;6.63;;;2.50;;
74935;SDS011;63501;55.570;37.488;2022-10-16T07:44:48;7.05;;;2.80;;
74935;SDS011;63501;55.570;37.488;2022-10-16T07:47:14;4.35;;;1.90;;
74935;SDS011;63501;55.570;37.488;2022-10-16T07:49:39;8.05;;;2.88;;
74935;SDS011;63501;55.570;37.488;2022-10-16T07:52:05;7.80;;;2.85;;
74935;SDS011;63501;55.570;37.488;2022-10-16T07:54:30;3.63;;;2.30;;
74935;SDS011;63501;55.570;37.488;2022-10-16T07:56:56;8.18;;;3.38;;
74935;SDS011;63501;55.570;37.488;2022-10-16T07:59:21;7.30;;;2.72;;
74935;SDS011;63501;55.570;37.488;2022-10-16T08:01:48;6.82;;;2.47;;
74935;SDS011;63501;55.570;37.488;2022-10-16T08:04:14;8.95;;;2.58;;
74935;SDS011;63501;55.570;37.488;2022-10-16T08:06:40;7.25;;;3.05;;
74935;SDS011;63501;55.570;37.488;2022-10-16T08:09:06;5.82;;;2.70;;
74935;SDS011;63501;55.570;37.488;2022-10-16T08:11:32;5.63;;;2.83;;
74935;SDS011;63501;55.570;37.488;2022-10-16T08:13:58;7.25;;;3.10;;
74935;SDS011;63501;55.570;37.488;2022-10-16T08:16:24;6.45;;;2.83;;
74935;SDS011;63501;55.570;37.488;2022-10-16T08:18:49;5.57;;;2.50;;
74935;SDS011;63501;55.570;37.488;2022-10-16T08:21:17;7.90;;;2.80;;
74935;SDS011;63501;55.570;37.488;2022-10-16T08:23:44;10.40;;;3.40;;
74935;SDS011;63501;55.570;37.488;2022-10-16T08:26:10;6.13;;;2.83;;
74935;SDS011;63501;55.570;37.488;2022-10-16T08:28:36;5.25;;;2.45;;
74935;SDS011;63501;55.570;37.488;2022-10-16T08:31:09;5.60;;;3.00;;
74935;SDS011;63501;55.570;37.488;2022-10-16T08:33:37;5.78;;;2.47;;
74935;SDS011;63501;55.570;37.488;2022-10-16T08:36:04;5.30;;;2.63;;
74935;SDS011;63501;55.570;37.488;2022-10-16T08:38:30;8.25;;;3.08;;
74935;SDS011;63501;55.570;37.488;2022-10-16T08:40:59;5.65;;;2.53;;
74935;SDS011;63501;55.570;37.488;2022-10-16T08:43:40;7.75;;;2.30;;
74935;SDS011;63501;55.570;37.488;2022-10-16T08:46:53;6.15;;;2.05;;
74935;SDS011;63501;55.570;37.488;2022-10-16T08:49:16;4.20;;;2.10;;
74935;SDS011;63501;55.570;37.488;2022-10-16T08:51:43;3.58;;;1.73;;
74935;SDS011;63501;55.570;37.488;2022-10-16T08:56:46;3.40;;;1.70;;
74935;SDS011;63501;55.570;37.488;2022-10-16T08:59:11;6.70;;;2.53;;
74935;SDS011;63501;55.570;37.488;2022-10-16T09:01:44;6.05;;;2.00;;
74935;SDS011;63501;55.570;37.488;2022-10-16T09:22:45;3.55;;;2.08;;
74935;SDS011;63501;55.570;37.488;2022-10-16T09:25:18;3.13;;;1.90;;
74935;SDS011;63501;55.570;37.488;2022-10-16T09:27:48;3.30;;;1.67;;
74935;SDS011;63501;55.570;37.488;2022-10-16T09:30:18;3.80;;;1.77;;
74935;SDS011;63501;55.570;37.488;2022-10-16T09:32:47;2.75;;;1.40;;
74935;SDS011;63501;55.570;37.488;2022-10-16T09:35:20;3.28;;;1.40;;
74935;SDS011;63501;55.570;37.488;2022-10-16T09:37:51;3.53;;;1.92;;
74935;SDS011;63501;55.570;37.488;2022-10-16T09:40:26;3.92;;;1.90;;
74935;SDS011;63501;55.570;37.488;2022-10-16T09:43:19;2.70;;;1.67;;
74935;SDS011;63501;55.570;37.488;2022-10-16T09:45:52;6.20;;;2.55;;
74935;SDS011;63501;55.570;37.488;2022-10-16T09:48:49;2.83;;;1.77;;
74935;SDS011;63501;55.570;37.488;2022-10-16T09:51:21;4.68;;;2.15;;
74935;SDS011;63501;55.570;37.488;2022-10-16T09:53:53;2.53;;;1.70;;
74935;SDS011;63501;55.570;37.488;2022-10-16T09:56:28;6.28;;;2.10;;
74935;SDS011;63501;55.570;37.488;2022-10-16T09:59:17;4.18;;;2.22;;
74935;SDS011;63501;55.570;37.488;2022-10-16T10:02:16;5.63;;;2.20;;
74935;SDS011;63501;55.570;37.488;2022-10-16T10:04:40;4.43;;;1.90;;
74935;SDS011;63501;55.570;37.488;2022-10-16T10:07:18;4.60;;;1.92;;
74935;SDS011;63501;55.570;37.488;2022-10-16T10:09:49;4.25;;;2.10;;
74935;SDS011;63501;55.570;37.488;2022-10-16T10:12:21;3.50;;;2.03;;
74935;SDS011;63501;55.570;37.488;2022-10-16T10:14:53;3.05;;;2.00;;
74935;SDS011;63501;55.570;37.488;2022-10-16T10:17:21;5.20;;;2.65;;
74935;SDS011;63501;55.570;37.488;2022-10-16T10:19:53;5.13;;;2.25;;
74935;SDS011;63501;55.570;37.488;2022-10-16T10:42:15;4.55;;;1.85;;
74935;SDS011;63501;55.570;37.488;2022-10-16T10:49:57;3.92;;;1.90;;
74935;SDS011;63501;55.570;37.488;2022-10-16T11:01:16;3.60;;;2.05;;
74935;SDS011;63501;55.570;37.488;2022-10-16T11:09:43;3.13;;;1.60;;
74935;SDS011;63501;55.570;37.488;2022-10-16T11:12:11;3.00;;;1.90;;
74935;SDS011;63501;55.570;37.488;2022-10-16T11:14:51;4.30;;;2.50;;
74935;SDS011;63501;55.570;37.488;2022-10-16T11:17:32;4.18;;;1.98;;
74935;SDS011;63501;55.570;37.488;2022-10-16T11:20:14;3.92;;;1.70;;
74935;SDS011;63501;55.570;37.488;2022-10-16T11:25:33;3.00;;;1.95;;
74935;SDS011;63501;55.570;37.488;2022-10-16T11:30:31;4.20;;;2.10;;
74935;SDS011;63501;55.570;37.488;2022-10-16T11:33:21;3.10;;;2.10;;
74935;SDS011;63501;55.570;37.488;2022-10-16T11:46:58;3.10;;;1.77;;
74935;SDS011;63501;55.570;37.488;2022-10-16T11:49:30;3.90;;;1.95;;
74935;SDS011;63501;55.570;37.488;2022-10-16T11:54:32;5.88;;;2.28;;
74935;SDS011;63501;55.570;37.488;2022-10-16T11:57:13;3.13;;;1.73;;
74935;SDS011;63501;55.570;37.488;2022-10-16T11:59:49;3.67;;;1.90;;
74935;SDS011;63501;55.570;37.488;2022-10-16T12:04:56;4.38;;;2.10;;
74935;SDS011;63501;55.570;37.488;2022-10-16T12:07:36;3.60;;;2.20;;
74935;SDS011;63501;55.570;37.488;2022-10-16T12:10:23;3.63;;;1.73;;
74935;SDS011;63501;55.570;37.488;2022-10-16T12:12:52;3.53;;;1.75;;
74935;SDS011;63501;55.570;37.488;2022-10-16T12:15:19;4.38;;;2.15;;
74935;SDS011;63501;55.570;37.488;2022-10-16T12:17:55;3.67;;;2.15;;
74935;SDS011;63501;55.570;37.488;2022-10-16T12:20:22;1.90;;;1.70;;
74935;SDS011;63501;55.570;37.488;2022-10-16T12:30:29;5.13;;;2.20;;
74935;SDS011;63501;55.570;37.488;2022-10-16T12:32:58;2.25;;;1.85;;
74935;SDS011;63501;55.570;37.488;2022-10-16T12:35:31;3.97;;;1.90;;
74935;SDS011;63501;55.570;37.488;2022-10-16T12:38:16;3.55;;;1.95;;
74935;SDS011;63501;55.570;37.488;2022-10-16T12:41:11;3.15;;;1.50;;
74935;SDS011;63501;55.570;37.488;2022-10-16T12:43:40;3.25;;;1.35;;
74935;SDS011;63501;55.570;37.488;2022-10-16T12:48:33;4.18;;;1.85;;
74935;SDS011;63501;55.570;37.488;2022-10-16T12:54:01;4.22;;;1.83;;
74935;SDS011;63501;55.570;37.488;2022-10-16T13:16:26;4.70;;;2.17;;
74935;SDS011;63501;55.570;37.488;2022-10-16T13:21:49;2.70;;;1.63;;
74935;SDS011;63501;55.570;37.488;2022-10-16T13:30:25;4.65;;;2.40;;
74935;SDS011;63501;55.570;37.488;2022-10-16T13:32:56;6.80;;;2.78;;
74935;SDS011;63501;55.570;37.488;2022-10-16T13:35:29;5.32;;;2.22;;
74935;SDS011;63501;55.570;37.488;2022-10-16T13:38:03;3.45;;;2.17;;
74935;SDS011;63501;55.570;37.488;2022-10-16T13:40:30;4.88;;;2.05;;
74935;SDS011;63501;55.570;37.488;2022-10-16T13:42:56;7.82;;;2.50;;
74935;SDS011;63501;55.570;37.488;2022-10-16T13:45:25;4.35;;;2.05;;
74935;SDS011;63501;55.570;37.488;2022-10-16T13:48:01;3.92;;;2.38;;
74935;SDS011;63501;55.570;37.488;2022-10-16T13:50:28;4.50;;;2.50;;
74935;SDS011;63501;55.570;37.488;2022-10-16T13:53:03;5.18;;;2.47;;
74935;SDS011;63501;55.570;37.488;2022-10-16T13:55:41;5.07;;;2.35;;
74935;SDS011;63501;55.570;37.488;2022-10-16T13:58:07;4.40;;;2.40;;
74935;SDS011;63501;55.570;37.488;2022-10-16T14:00:36;6.00;;;2.65;;
74935;SDS011;63501;55.570;37.488;2022-10-16T14:03:03;7.35;;;2.85;;
74935;SDS011;63501;55.570;37.488;2022-10-16T14:05:32;4.70;;;2.30;;
74935;SDS011;63501;55.570;37.488;2022-10-16T14:07:58;7.63;;;3.30;;
74935;SDS011;63501;55.570;37.488;2022-10-16T14:10:29;6.10;;;2.40;;
74935;SDS011;63501;55.570;37.488;2022-10-16T14:13:04;6.07;;;3.42;;
74935;SDS011;63501;55.570;37.488;2022-10-16T14:15:32;6.60;;;2.80;;
74935;SDS011;63501;55.570;37.488;2022-10-16T14:17:59;5.50;;;2.90;;
74935;SDS011;63501;55.570;37.488;2022-10-16T14:20:29;5.93;;;3.00;;
74935;SDS011;63501;55.570;37.488;2022-10-16T14:23:03;6.13;;;3.25;;
74935;SDS011;63501;55.570;37.488;2022-10-16T14:26:05;6.68;;;3.40;;
74935;SDS011;63501;55.570;37.488;2022-10-16T14:28:34;6.45;;;2.97;;
74935;SDS011;63501;55.570;37.488;2022-10-16T14:33:54;7.07;;;2.95;;
74935;SDS011;63501;55.570;37.488;2022-10-16T14:36:20;7.43;;;3.45;;
74935;SDS011;63501;55.570;37.488;2022-10-16T14:38:57;7.53;;;3.55;;
74935;SDS011;63501;55.570;37.488;2022-10-16T14:41:28;9.32;;;3.55;;
74935;SDS011;63501;55.570;37.488;2022-10-16T14:43:56;7.63;;;3.50;;
74935;SDS011;63501;55.570;37.488;2022-10-16T14:46:34;7.00;;;3.58;;
74935;SDS011;63501;55.570;37.488;2022-10-16T14:51:37;8.35;;;4.35;;
74935;SDS011;63501;55.570;37.488;2022-10-16T14:54:07;8.82;;;4.60;;
74935;SDS011;63501;55.570;37.488;2022-10-16T14:56:35;8.18;;;3.80;;
74935;SDS011;63501;55.570;37.488;2022-10-16T14:59:10;4.75;;;3.10;;
74935;SDS011;63501;55.570;37.488;2022-10-16T15:01:58;9.15;;;3.83;;
74935;SDS011;63501;55.570;37.488;2022-10-16T15:04:23;7.68;;;3.92;;
74935;SDS011;63501;55.570;37.488;2022-10-16T15:06:49;8.98;;;4.95;;
74935;SDS011;63501;55.570;37.488;2022-10-16T15:09:15;7.95;;;4.70;;
74935;SDS011;63501;55.570;37.488;2022-10-16T15:11:41;8.77;;;4.60;;
74935;SDS011;63501;55.570;37.488;2022-10-16T15:14:08;7.03;;;4.38;;
74935;SDS011;63501;55.570;37.488;2022-10-16T15:16:38;11.10;;;5.20;;
74935;SDS011;63501;55.570;37.488;2022-10-16T15:19:03;7.97;;;4.40;;
74935;SDS011;63501;55.570;37.488;2022-10-16T15:21:30;7.10;;;4.30;;
74935;SDS011;63501;55.570;37.488;2022-10-16T15:23:57;7.05;;;4.90;;
74935;SDS011;63501;55.570;37.488;2022-10-16T15:26:26;7.43;;;4.18;;
74935;SDS011;63501;55.570;37.488;2022-10-16T15:28:53;9.73;;;4.15;;
74935;SDS011;63501;55.570;37.488;2022-10-16T15:31:19;7.30;;;4.10;;
74935;SDS011;63501;55.570;37.488;2022-10-16T15:33:51;6.20;;;3.40;;
74935;SDS011;63501;55.570;37.488;2022-10-16T15:36:24;7.57;;;3.50;;
74935;SDS011;63501;55.570;37.488;2022-10-16T15:38:51;6.28;;;2.92;;
74935;SDS011;63501;55.570;37.488;2022-10-16T15:41:18;7.38;;;3.58;;
74935;SDS011;63501;55.570;37.488;2022-10-16T15:43:43;5.90;;;3.35;;
74935;SDS011;63501;55.570;37.488;2022-10-16T15:46:09;5.75;;;3.60;;
74935;SDS011;63501;55.570;37.488;2022-10-16T15:48:39;6.00;;;3.35;;
74935;SDS011;63501;55.570;37.488;2022-10-16T15:51:05;6.45;;;3.97;;
74935;SDS011;63501;55.570;37.488;2022-10-16T15:53:32;8.10;;;3.72;;
74935;SDS011;63501;55.570;37.488;2022-10-16T15:56:01;5.85;;;2.92;;
74935;SDS011;63501;55.570;37.488;2022-10-16T15:58:31;6.25;;;3.10;;
74935;SDS011;63501;55.570;37.488;2022-10-16T16:00:57;5.97;;;2.55;;
74935;SDS011;63501;55.570;37.488;2022-10-16T16:03:26;6.20;;;3.30;;
74935;SDS011;63501;55.570;37.488;2022-10-16T16:05:52;6.97;;;3.08;;
74935;SDS011;63501;55.570;37.488;2022-10-16T16:08:18;4.85;;;3.40;;
74935;SDS011;63501;55.570;37.488;2022-10-16T16:10:43;6.82;;;3.70;;
74935;SDS011;63501;55.570;37.488;2022-10-16T16:13:09;6.05;;;2.88;;
74935;SDS011;63501;55.570;37.488;2022-10-16T16:15:36;7.13;;;3.20;;
74935;SDS011;63501;55.570;37.488;2022-10-16T16:18:03;6.00;;;3.22;;
74935;SDS011;63501;55.570;37.488;2022-10-16T16:20:30;6.70;;;3.40;;
74935;SDS011;63501;55.570;37.488;2022-10-16T16:22:56;8.63;;;3.88;;
74935;SDS011;63501;55.570;37.488;2022-10-16T16:25:22;5.72;;;3.47;;
74935;SDS011;63501;55.570;37.488;2022-10-16T16:27:48;6.97;;;3.30;;
74935;SDS011;63501;55.570;37.488;2022-10-16T16:30:13;6.93;;;3.15;;
74935;SDS011;63501;55.570;37.488;2022-10-16T16:32:39;8.73;;;3.30;;
74935;SDS011;63501;55.570;37.488;2022-10-16T16:35:05;7.13;;;3.03;;
74935;SDS011;63501;55.570;37.488;2022-10-16T16:37:32;7.97;;;3.60;;
74935;SDS011;63501;55.570;37.488;2022-10-16T16:39:58;6.85;;;3.17;;
74935;SDS011;63501;55.570;37.488;2022-10-16T16:42:24;7.05;;;3.28;;
74935;SDS011;63501;55.570;37.488;2022-10-16T16:44:51;8.00;;;3.97;;
74935;SDS011;63501;55.570;37.488;2022-10-16T16:47:17;8.45;;;3.20;;
74935;SDS011;63501;55.570;37.488;2022-10-16T16:49:42;6.68;;;2.88;;
74935;SDS011;63501;55.570;37.488;2022-10-16T16:52:08;6.68;;;3.30;;
74935;SDS011;63501;55.570;37.488;2022-10-16T16:54:33;6.88;;;3.55;;
74935;SDS011;63501;55.570;37.488;2022-10-16T16:56:59;5.15;;;2.88;;
74935;SDS011;63501;55.570;37.488;2022-10-16T16:59:24;5.72;;;3.00;;
74935;SDS011;63501;55.570;37.488;2022-10-16T17:01:50;4.95;;;2.65;;
74935;SDS011;63501;55.570;37.488;2022-10-16T17:04:16;7.22;;;3.35;;
74935;SDS011;63501;55.570;37.488;2022-10-16T17:06:42;5.88;;;2.90;;
74935;SDS011;63501;55.570;37.488;2022-10-16T17:09:08;7.30;;;3.20;;
74935;SDS011;63501;55.570;37.488;2022-10-16T17:11:34;4.68;;;2.97;;
74935;SDS011;63501;55.570;37.488;2022-10-16T17:14:00;5.97;;;2.95;;
74935;SDS011;63501;55.570;37.488;2022-10-16T17:16:31;5.97;;;3.05;;
74935;SDS011;63501;55.570;37.488;2022-10-16T17:19:01;7.43;;;3.65;;
74935;SDS011;63501;55.570;37.488;2022-10-16T17:21:28;7.05;;;3.00;;
74935;SDS011;63501;55.570;37.488;2022-10-16T17:23:55;9.30;;;3.35;;
74935;SDS011;63501;55.570;37.488;2022-10-16T17:26:21;8.00;;;3.42;;